createdAt,value
2023-03-21T06:33:17.387Z,23.76
2023-03-21T06:35:21.782Z,23.98
2023-03-21T06:37:26.158Z,24.15
2023-03-21T06:39:30.644Z,24.31
2023-03-21T06:41:35.036Z,24.44
2023-03-21T06:43:39.451Z,24.58
2023-03-21T06:45:43.920Z,24.7
2023-03-21T06:47:48.344Z,24.78
2023-03-21T06:49:52.877Z,24.85
2023-03-21T06:51:57.368Z,24.91
2023-03-21T06:54:01.843Z,24.96
2023-03-21T06:56:06.359Z,25.02
2023-03-21T06:58:10.776Z,25.06
2023-03-21T07:00:15.172Z,25.09
2023-03-21T07:02:19.554Z,25.14
2023-03-21T07:04:23.998Z,25.18
2023-03-21T07:06:28.440Z,25.23
2023-03-21T07:08:32.860Z,25.24
2023-03-21T07:10:37.245Z,25.24
2023-03-21T07:12:41.676Z,25.23
2023-03-21T07:14:46.060Z,25.24
2023-03-21T07:16:50.601Z,25.24
2023-03-21T07:18:55.166Z,25.24
2023-03-21T07:20:59.701Z,25.23
2023-03-21T07:23:04.260Z,25.21
2023-03-21T07:25:08.775Z,25.21
2023-03-21T07:27:13.431Z,25.21
2023-03-21T07:29:17.974Z,25.21
2023-03-21T07:31:22.415Z,25.23
2023-03-21T07:33:27.033Z,25.23
2023-03-21T07:35:31.418Z,25.24
2023-03-21T07:37:37.895Z,25.24
2023-03-21T07:39:42.563Z,25.26
2023-03-21T07:41:46.993Z,25.25
2023-03-21T07:43:51.470Z,25.27
2023-03-21T07:45:56.092Z,25.28
2023-03-21T07:48:00.796Z,25.3
2023-03-21T07:50:05.507Z,25.28
2023-03-21T07:52:09.910Z,25.2
2023-03-21T07:54:14.326Z,25.12
2023-03-21T07:56:18.696Z,25.05
2023-03-21T07:58:23.106Z,25
2023-03-21T08:00:27.685Z,24.95
2023-03-21T08:02:32.243Z,24.9
2023-03-21T08:04:36.878Z,24.88
2023-03-21T08:06:41.259Z,24.83
2023-03-21T08:08:45.638Z,24.8
2023-03-21T08:10:50.095Z,24.79
2023-03-21T08:12:54.523Z,24.78
2023-03-21T08:15:01.109Z,24.76
2023-03-21T08:17:05.897Z,24.75
2023-03-21T08:19:10.692Z,24.73
2023-03-21T08:21:15.113Z,24.71
2023-03-21T08:23:19.541Z,24.7
2023-03-21T08:25:24.026Z,24.7
2023-03-21T08:27:28.427Z,24.7
2023-03-21T08:29:32.811Z,24.69
2023-03-21T08:31:37.276Z,24.71
2023-03-21T08:33:41.746Z,24.7
2023-03-21T08:35:46.488Z,24.66
2023-03-21T08:37:51.299Z,24.64
2023-03-21T08:39:55.794Z,24.63
2023-03-21T08:42:00.650Z,24.62
2023-03-21T08:44:05.059Z,24.61
2023-03-21T08:46:09.579Z,24.6
2023-03-21T08:48:14.189Z,24.6
2023-03-21T08:50:18.932Z,24.59
2023-03-21T08:52:23.404Z,24.59
2023-03-21T08:54:27.827Z,24.6
2023-03-21T08:56:32.329Z,24.57
2023-03-21T08:58:39.972Z,24.56
2023-03-21T09:00:44.429Z,24.58
2023-03-21T09:02:48.919Z,24.58
2023-03-21T09:04:53.387Z,24.56
2023-03-21T09:06:58.018Z,24.54
2023-03-21T09:09:02.505Z,24.53
2023-03-21T09:11:06.951Z,24.52
2023-03-21T09:13:11.430Z,24.53
2023-03-21T09:15:15.894Z,24.52
2023-03-21T09:17:21.250Z,24.52
2023-03-21T09:19:26.039Z,24.51
2023-03-21T09:21:30.520Z,24.47
2023-03-21T09:23:34.928Z,24.43
2023-03-21T09:25:39.650Z,24.42
2023-03-21T09:27:44.439Z,24.46
2023-03-21T09:29:48.838Z,24.45
2023-03-21T09:31:53.282Z,24.46
2023-03-21T09:33:57.763Z,24.44
2023-03-21T09:36:02.259Z,24.46
2023-03-21T09:38:06.787Z,24.46
2023-03-21T09:40:11.188Z,24.49
2023-03-21T09:42:15.976Z,24.49
2023-03-21T09:44:20.390Z,24.48
2023-03-21T09:46:24.787Z,24.47
2023-03-21T09:48:29.411Z,24.51
2023-03-21T09:50:33.775Z,24.61
2023-03-21T09:52:38.140Z,24.72
2023-03-21T09:54:42.506Z,24.82
2023-03-21T09:56:46.818Z,24.89
2023-03-21T09:58:51.166Z,24.94
2023-03-21T10:00:56.022Z,24.96
2023-03-21T10:03:00.570Z,24.95
2023-03-21T10:05:04.955Z,24.93
2023-03-21T10:07:09.402Z,24.91
2023-03-21T10:09:13.757Z,24.9
2023-03-21T10:11:18.133Z,24.9
2023-03-21T10:13:22.670Z,24.92
2023-03-21T10:15:27.081Z,24.94
2023-03-21T10:17:31.479Z,24.92
2023-03-21T10:19:35.965Z,24.95
2023-03-21T10:21:59.564Z,24.94
2023-03-21T14:03:08.631Z,24.27
2023-03-21T14:05:13.088Z,24.36
2023-03-21T14:07:17.780Z,24.39
2023-03-21T14:09:22.485Z,24.39
2023-03-21T14:11:26.952Z,24.4
2023-03-21T14:13:35.008Z,24.39
2023-03-21T14:15:56.673Z,24.39
2023-03-21T14:18:03.459Z,24.35
2023-03-21T14:20:54.805Z,24.31
2023-03-21T14:22:59.183Z,24.27
2023-03-21T14:25:03.584Z,24.25
2023-03-21T14:27:07.979Z,24.26
2023-03-21T14:29:24.919Z,24.25
2023-03-21T14:31:33.059Z,24.24
2023-03-21T14:33:37.709Z,24.21
2023-03-21T14:35:42.445Z,24.19
2023-03-21T14:37:47.099Z,24.15
2023-03-21T14:39:51.633Z,24.11
2023-03-21T14:41:56.037Z,24.08
2023-03-21T14:44:00.597Z,24.06
2023-03-21T14:46:05.035Z,24.03
2023-03-21T14:48:09.601Z,24.03
2023-03-21T14:50:14.305Z,24.02
2023-03-21T14:52:18.775Z,24.02
2023-03-21T14:54:23.209Z,24.02
2023-03-21T14:56:27.654Z,24
2023-03-21T14:58:32.120Z,24
2023-03-21T15:00:36.809Z,23.99
2023-03-21T15:02:41.327Z,23.98
2023-03-21T15:04:45.942Z,23.95
2023-03-21T15:06:50.415Z,23.93
2023-03-21T15:08:54.804Z,23.93
2023-03-21T15:11:06.756Z,23.91
2023-03-21T15:13:12.220Z,23.89
2023-03-21T15:15:16.737Z,23.9
2023-03-21T15:17:21.153Z,23.89
2023-03-21T15:19:25.631Z,23.87
2023-03-21T15:21:30.045Z,23.84
2023-03-21T15:23:34.503Z,23.83
2023-03-21T15:25:39.217Z,23.81
2023-03-21T15:27:44.783Z,23.77
2023-03-21T15:29:49.172Z,23.77
2023-03-21T15:31:53.611Z,23.76
2023-03-21T15:33:58.080Z,23.76
2023-03-21T15:36:02.601Z,23.73
2023-03-21T15:38:07.181Z,23.71
2023-03-21T15:40:11.725Z,23.69
2023-03-21T15:42:16.230Z,23.69
2023-03-21T15:44:20.652Z,23.69
2023-03-21T15:46:25.127Z,23.7
2023-03-21T15:48:29.764Z,23.69
2023-03-21T15:50:34.171Z,23.69
2023-03-21T15:52:38.920Z,23.7
2023-03-21T15:54:43.355Z,23.71
2023-03-21T15:56:47.906Z,23.72
2023-03-21T15:58:52.299Z,23.73
2023-03-21T16:00:56.894Z,23.69
2023-03-21T16:03:01.562Z,23.69
2023-03-21T16:05:06.096Z,23.68
2023-03-21T16:07:10.541Z,23.68
2023-03-21T16:09:14.953Z,23.69
2023-03-21T16:11:19.455Z,23.68
2023-03-21T16:13:23.899Z,23.68
2023-03-21T16:15:28.332Z,23.67
2023-03-21T16:17:32.858Z,23.66
2023-03-21T16:19:37.371Z,23.67
2023-03-21T16:21:41.842Z,23.67
2023-03-21T16:23:46.303Z,23.67
2023-03-21T16:25:50.709Z,23.67
2023-03-21T16:27:55.126Z,23.73
2023-03-21T16:29:59.591Z,23.77
2023-03-21T16:32:04.136Z,23.86
2023-03-21T16:34:08.732Z,23.94
2023-03-21T16:36:13.197Z,24.03
2023-03-21T16:38:17.597Z,24.08
2023-03-21T16:40:22.186Z,24.16
2023-03-21T16:42:26.889Z,24.2
2023-03-21T16:44:31.336Z,24.25
2023-03-21T16:46:35.738Z,24.29
2023-03-21T16:48:40.146Z,24.33
2023-03-21T16:50:44.627Z,24.37
2023-03-21T16:52:49.057Z,24.4
2023-03-21T16:54:53.468Z,24.43
2023-03-21T16:56:57.885Z,24.48
2023-03-21T16:59:02.301Z,24.52
2023-03-21T17:01:06.710Z,24.54
2023-03-21T17:03:11.477Z,24.57
2023-03-21T17:05:16.136Z,24.59
2023-03-21T17:07:20.523Z,24.61
2023-03-21T17:09:24.968Z,24.61
2023-03-21T17:11:29.408Z,24.64
2023-03-21T17:13:33.971Z,24.67
2023-03-21T17:15:38.392Z,24.7
2023-03-21T17:17:42.880Z,24.74
2023-03-21T17:19:47.374Z,24.81
2023-03-21T17:21:51.794Z,24.86
2023-03-21T17:23:56.233Z,24.88
2023-03-21T17:26:00.782Z,24.92
2023-03-21T17:28:05.165Z,24.92
2023-03-21T17:30:09.645Z,24.87
2023-03-21T17:32:14.242Z,24.81
2023-03-21T17:34:18.718Z,24.79
2023-03-21T17:36:23.272Z,24.82
2023-03-21T17:38:27.805Z,24.85
2023-03-21T17:40:32.176Z,24.88
2023-03-21T17:42:36.524Z,24.9
2023-03-21T17:44:41.059Z,24.91
2023-03-21T17:46:45.615Z,24.93
2023-03-21T17:48:52.878Z,24.94
2023-03-21T17:50:57.340Z,24.95
2023-03-21T17:53:01.771Z,24.94
2023-03-21T17:55:06.218Z,24.91
2023-03-21T17:57:10.765Z,24.86
2023-03-21T17:59:15.179Z,24.83
2023-03-21T18:01:19.553Z,24.8
2023-03-21T18:03:24.119Z,24.8
2023-03-21T18:05:28.577Z,24.79
2023-03-21T18:08:04.408Z,24.78
2023-03-21T18:10:15.695Z,24.77
2023-03-21T18:12:20.054Z,24.76
2023-03-21T18:14:28.424Z,24.76
2023-03-21T18:16:35.036Z,24.78
2023-03-21T18:18:39.699Z,24.77
2023-03-21T18:20:53.585Z,24.73
2023-03-21T18:23:02.356Z,24.7
2023-03-21T18:25:06.791Z,24.66
2023-03-21T18:27:11.217Z,24.66
2023-03-21T18:32:46.889Z,24.63
2023-03-21T18:34:51.580Z,24.65
2023-03-21T18:36:56.249Z,24.65
2023-03-21T18:39:00.696Z,24.65
2023-03-21T18:41:05.096Z,24.65
2023-03-21T18:43:52.410Z,24.66
2023-03-21T18:46:23.504Z,24.67
2023-03-21T18:48:29.717Z,24.66
2023-03-21T18:50:38.544Z,24.67
2023-03-21T18:52:43.726Z,24.67
2023-03-21T18:54:48.115Z,24.66
2023-03-21T18:59:42.953Z,24.68
2023-03-21T19:01:47.577Z,24.69
2023-03-21T19:04:16.262Z,24.64
2023-03-21T19:06:33.297Z,24.61
2023-03-21T19:08:37.759Z,24.63
2023-03-21T19:10:42.256Z,24.64
2023-03-21T19:12:46.932Z,24.66
2023-03-21T19:14:51.381Z,24.66
2023-03-21T19:17:37.614Z,24.64
2023-03-21T19:20:52.878Z,24.62
2023-03-21T19:22:57.429Z,24.62
2023-03-21T19:25:01.826Z,24.59
2023-03-21T19:27:09.895Z,24.56
2023-03-21T19:29:14.826Z,24.55
2023-03-21T19:31:19.404Z,24.56
2023-03-21T19:33:24.052Z,24.58
2023-03-21T19:35:28.983Z,24.61
2023-03-21T19:37:35.171Z,24.62
2023-03-21T19:39:39.987Z,24.65
2023-03-21T19:41:44.596Z,24.67
2023-03-21T19:43:54.943Z,24.68
2023-03-21T19:46:00.284Z,24.71
2023-03-21T19:48:04.968Z,24.72
2023-03-21T19:53:30.678Z,24.75
2023-03-21T19:55:35.137Z,24.76
2023-03-21T19:57:39.598Z,24.77
2023-03-21T19:59:44.026Z,24.76
2023-03-21T20:01:48.728Z,24.75
2023-03-21T20:04:09.219Z,24.75
2023-03-21T20:06:13.632Z,24.75
2023-03-21T20:08:18.490Z,24.73
2023-03-21T20:10:25.504Z,24.74
2023-03-21T20:12:30.077Z,24.74
2023-03-21T20:14:34.632Z,24.74
2023-03-21T20:16:43.178Z,24.75
2023-03-21T20:18:48.439Z,24.73
2023-03-21T20:20:53.328Z,24.74
2023-03-21T20:23:06.628Z,24.79
2023-03-21T20:25:14.162Z,24.84
2023-03-21T20:27:18.602Z,24.86
2023-03-21T20:30:07.822Z,24.88
2023-03-21T20:32:14.175Z,24.88
2023-03-21T20:34:18.590Z,24.88
2023-03-21T20:36:41.246Z,24.87
2023-03-21T20:38:47.038Z,24.85
2023-03-21T20:40:51.489Z,24.75
2023-03-21T20:42:56.296Z,24.74
2023-03-21T20:45:36.418Z,24.81
2023-03-21T20:47:40.935Z,24.87
2023-03-21T20:49:45.617Z,24.92
2023-03-21T20:55:09.054Z,25.01
2023-03-21T20:57:13.515Z,25.07
2023-03-21T20:59:26.357Z,25.08
2023-03-21T21:01:32.710Z,25.11
2023-03-21T21:03:37.266Z,25.16
2023-03-21T21:05:41.680Z,25.18
2023-03-21T21:07:46.355Z,25.2
2023-03-21T21:09:50.871Z,25.23
2023-03-21T21:12:11.135Z,25.19
2023-03-21T21:14:17.188Z,25.1
2023-03-21T21:16:21.767Z,25.06
2023-03-21T21:18:26.601Z,25.03
2023-03-21T21:20:31.047Z,24.98
2023-03-21T21:22:36.305Z,24.95
2023-03-21T21:24:47.841Z,24.91
2023-03-21T21:26:52.511Z,24.89
2023-03-21T21:28:56.921Z,24.88
2023-03-21T21:31:01.471Z,24.86
2023-03-21T21:33:06.006Z,24.84
2023-03-21T21:35:10.534Z,24.83
2023-03-21T21:37:14.957Z,24.78
2023-03-21T21:39:19.407Z,24.76
2023-03-21T21:41:23.813Z,24.73
2023-03-21T21:43:28.215Z,24.72
2023-03-21T21:45:32.752Z,24.73
2023-03-21T21:47:37.315Z,24.72
2023-03-21T21:49:41.749Z,24.72
2023-03-21T21:51:47.665Z,24.73
2023-03-21T21:53:52.358Z,24.69
2023-03-21T21:55:56.871Z,24.63
2023-03-21T21:58:01.289Z,24.57
2023-03-21T22:00:05.682Z,24.52
2023-03-21T22:02:10.440Z,24.45
2023-03-21T22:04:14.892Z,24.42
2023-03-21T22:06:19.266Z,24.4
2023-03-21T22:08:23.732Z,24.43
2023-03-21T22:10:28.136Z,24.45
2023-03-21T22:12:32.559Z,24.45
2023-03-21T22:14:37.069Z,24.44
2023-03-21T22:16:41.509Z,24.46
2023-03-21T22:18:46.166Z,24.46
2023-03-21T22:20:50.588Z,24.46
2023-03-21T22:22:55.016Z,24.46
2023-03-21T22:24:59.446Z,24.47
2023-03-21T22:27:03.827Z,24.48
2023-03-21T22:29:08.311Z,24.47
2023-03-21T22:31:12.788Z,24.46
2023-03-21T22:33:17.330Z,24.44
2023-03-21T22:35:21.891Z,24.44
2023-03-21T22:37:26.715Z,24.43
2023-03-21T22:39:31.148Z,24.44
2023-03-21T22:41:35.703Z,24.44
2023-03-21T22:43:40.104Z,24.44
2023-03-21T22:45:44.585Z,24.43
2023-03-21T22:47:49.171Z,24.43
2023-03-21T22:49:53.749Z,24.41
2023-03-21T22:51:58.560Z,24.39
2023-03-21T22:54:02.994Z,24.39
2023-03-21T22:56:07.590Z,24.39
2023-03-21T22:58:12.128Z,24.38
2023-03-21T23:00:16.495Z,24.37
2023-03-21T23:02:20.913Z,24.37
2023-03-21T23:04:25.407Z,24.35
2023-03-21T23:06:30.056Z,24.36
2023-03-21T23:08:34.522Z,24.34
2023-03-21T23:10:39.439Z,24.34
2023-03-21T23:12:45.352Z,24.33
2023-03-21T23:14:49.768Z,24.33
2023-03-21T23:16:54.148Z,24.32
2023-03-21T23:18:58.544Z,24.31
2023-03-21T23:21:02.931Z,24.29
2023-03-21T23:23:07.330Z,24.28
2023-03-21T23:25:11.857Z,24.26
2023-03-21T23:27:16.282Z,24.25
2023-03-21T23:29:20.850Z,24.25
2023-03-21T23:31:25.350Z,24.24
2023-03-21T23:33:29.859Z,24.24
2023-03-21T23:35:34.326Z,24.25
2023-03-21T23:37:38.873Z,24.24
2023-03-21T23:39:43.286Z,24.24
2023-03-21T23:41:47.812Z,24.23
2023-03-21T23:43:52.259Z,24.24
2023-03-21T23:45:56.746Z,24.23
2023-03-21T23:48:01.269Z,24.23
2023-03-21T23:50:05.900Z,24.24
2023-03-21T23:52:10.355Z,24.24
2023-03-21T23:54:14.749Z,24.25
2023-03-21T23:56:19.207Z,24.25
2023-03-21T23:58:23.648Z,24.24
